Detall de PIREP

Printer-friendly versionPDF version

[2012/01/15 14:36:00]
Flight IATA:CT0001
Pilot Number:037
Company ICAO:CAT
Aircraft Type:B752/E
PAX:105
Departing Airport: LEGE
Destination Airport: LELC
Alternate Airport:LEMG
Online: VATSIM
Route:BGR UN855 SISMO UZ237 ADX UN850 IZA UN851 ALT
Flight Level:F270
No Slew and time accel
No pause
Crash detect
Detect pilot in Cockpit between each 30 and 45 minutes
14:36 Zero fuel Weight: 159383 Lbs, Fuel Weight: 21503 Lbs
14:36 VATSIM:LEGE 151400Z 18006KT 160V230 CAVOK 11/03 Q1015
14:36 VATSIM:LELC 151400Z 19001KT CAVOK 17/01 Q1017 NOSIG
14:42 Parking Brakes off
14:52 Take-off
14:52 Take off Weight: 179405 Lbs
14:52 Wind: 185º @ 006 Knots Heading: 195º
14:52 POS N41º 54´ 04´´ E002º 45´ 38´´
14:52 Gear Up: 197 Knots
14:52 Flaps:2 at 197 Knots
14:52 Flaps:1 at 211 Knots
14:53 Flaps:0 at 215 Knots
15:03 TOC
15:03 Fuel Weight: 17036 Lb
15:07 Wind:126º@011 Knots Heading: 180º Ground Speed: 449 Knots Altitude 27070 ft
15:22 Wind:213º@028 Knots Heading: 227º Ground Speed: 458 Knots Altitude 27099 ft
15:36 TOD
15:36 Fuel Weight: 11874 Lb
15:37 Wind:201º@023 Knots Heading: 245º Ground Speed: 387 Knots Altitude 25331 ft
15:52 Wind:175º@005 Knots Heading: 176º Ground Speed: 235 Knots Altitude 3579 ft
15:54 Flaps:1 at 212 Knots
16:02 Flaps:2 at 190 Knots
16:04 Flaps:3 at 170 Knots
16:04 Gear Down: 169 Knots
16:05 Flaps:4 at 151 Knots
16:06 Flaps:5 at 149 Knots
16:07 Wind:137º@002 Knots Heading: 046º Ground Speed: 143 Knots Altitude 620 ft
16:07 TouchDown:Rate -182 ft/min Speed: 135 Knots
16:08 VATSIM:LELC 151500Z VRB02KT CAVOK 15/06 Q1016 NOSIG
16:08 Land
16:08 Wind:144º@002 Knots
16:08 Heading: 043º
16:08 Flight Duration: 01:16
16:08 Landing Weight: 168442 Lbs
16:08 POS N37º 46´ 39´´ W000º 48´ 31´´
16:11 Parking brakes on
16:11 Block to Block Duration: 01:29
16:11 Final Fuel: 8600 Lbls
16:11 Spent Fuel: 12903 Lbls
16:11 Flight Length: 329 NM
16:11 TOD Land Length: 110 NM

Exportar CSV

Powered by Drupal - Modified by Danger4k